createdAt,value
2023-04-26T00:01:31.738Z,50.69
2023-04-26T00:03:58.745Z,50.65
2023-04-26T00:06:27.071Z,50.58
2023-04-26T00:08:54.184Z,50.45
2023-04-26T00:11:21.240Z,50.61
2023-04-26T00:13:48.058Z,50.53
2023-04-26T00:16:14.868Z,50.55
2023-04-26T00:18:41.702Z,50.64
2023-04-26T00:21:08.565Z,50.54
2023-04-26T00:23:36.570Z,50.41
2023-04-26T00:26:03.732Z,50.40
2023-04-26T00:28:31.396Z,50.38
2023-04-26T00:30:58.353Z,50.38
2023-04-26T00:33:25.905Z,50.24
2023-04-26T00:35:52.949Z,50.54
2023-04-26T00:38:19.836Z,50.64
2023-04-26T00:40:46.738Z,50.66
2023-04-26T00:43:13.566Z,50.73
2023-04-26T00:45:40.450Z,50.54
2023-04-26T00:48:07.499Z,50.75
2023-04-26T00:50:34.533Z,50.47
2023-04-26T00:53:03.671Z,50.67
2023-04-26T00:55:30.804Z,50.84
2023-04-26T00:57:57.729Z,50.70
2023-04-26T01:00:25.777Z,50.43
2023-04-26T01:02:52.853Z,50.27
2023-04-26T01:05:19.838Z,50.41
2023-04-26T01:07:47.458Z,50.33
2023-04-26T01:10:14.231Z,50.19
2023-04-26T01:12:41.440Z,50.22
2023-04-26T01:15:11.318Z,49.82
2023-04-26T01:17:38.727Z,50.19
2023-04-26T01:20:08.848Z,50.09
2023-04-26T01:22:36.458Z,50.08
2023-04-26T01:25:07.560Z,50.07
2023-04-26T01:27:34.825Z,50.04
2023-04-26T01:30:01.931Z,49.99
2023-04-26T01:32:31.199Z,49.88
2023-04-26T01:34:58.467Z,49.88
2023-04-26T01:37:25.383Z,50.20
2023-04-26T01:39:52.677Z,50.22
2023-04-26T01:42:20.383Z,50.27
2023-04-26T01:44:47.229Z,50.32
2023-04-26T01:47:14.060Z,50.12
2023-04-26T01:49:41.596Z,50.36
2023-04-26T01:52:08.498Z,50.30
2023-04-26T01:54:35.316Z,50.33
2023-04-26T01:57:02.700Z,50.24
2023-04-26T01:59:29.754Z,50.14
2023-04-26T02:01:58.910Z,49.92
2023-04-26T02:04:27.664Z,50.02
2023-04-26T02:06:54.786Z,50.24
2023-04-26T02:09:24.026Z,50.09
2023-04-26T02:11:50.811Z,49.97
2023-04-26T02:14:17.670Z,50.07
2023-04-26T02:16:44.774Z,50.20
2023-04-26T02:19:13.496Z,50.20
2023-04-26T02:21:57.694Z,50.57
2023-04-26T02:24:25.452Z,50.78
2023-04-26T02:26:54.329Z,50.76
2023-04-26T02:29:29.422Z,50.82
2023-04-26T02:32:03.140Z,50.97
2023-04-26T02:34:29.964Z,51.26
2023-04-26T02:36:56.940Z,50.95
2023-04-26T02:39:24.723Z,51.34
2023-04-26T02:41:51.567Z,51.64
2023-04-26T02:44:18.420Z,51.57
2023-04-26T02:46:45.297Z,51.46
2023-04-26T02:49:12.149Z,51.47
2023-04-26T02:51:39.017Z,51.57
2023-04-26T02:54:07.060Z,51.51
2023-04-26T02:56:34.551Z,51.11
2023-04-26T02:59:01.603Z,51.67
2023-04-26T03:01:28.420Z,51.36
2023-04-26T03:03:55.687Z,51.63
2023-04-26T03:06:23.525Z,51.64
2023-04-26T03:08:50.721Z,51.85
2023-04-26T03:11:17.679Z,51.37
2023-04-26T03:13:44.647Z,51.33
2023-04-26T03:16:11.599Z,51.46
2023-04-26T03:18:38.449Z,51.32
2023-04-26T03:21:06.649Z,51.25
2023-04-26T03:23:34.101Z,51.52
2023-04-26T03:26:01.155Z,51.26
2023-04-26T03:28:28.339Z,51.56
2023-04-26T03:30:55.675Z,51.47
2023-04-26T03:33:22.827Z,50.97
2023-04-26T03:35:49.819Z,51.08
2023-04-26T03:38:17.484Z,51.12
2023-04-26T03:40:45.219Z,51.02
2023-04-26T03:43:12.073Z,51.05
2023-04-26T03:45:38.876Z,51.03
2023-04-26T03:48:07.158Z,50.88
2023-04-26T03:50:34.045Z,50.99
2023-04-26T03:53:00.907Z,50.94
2023-04-26T03:55:27.980Z,50.66
2023-04-26T03:57:54.877Z,50.62
2023-04-26T04:00:23.481Z,50.70
2023-04-26T04:02:50.643Z,50.89
2023-04-26T04:05:24.156Z,50.81
2023-04-26T04:07:50.984Z,50.98
2023-04-26T04:10:17.814Z,50.88
2023-04-26T04:12:45.504Z,51.15
2023-04-26T04:15:12.489Z,51.13
2023-04-26T04:17:44.591Z,51.24
2023-04-26T04:20:12.439Z,51.35
2023-04-26T04:22:40.285Z,51.40
2023-04-26T04:25:13.711Z,51.20
2023-04-26T04:27:43.301Z,51.14
2023-04-26T04:30:12.088Z,51.36
2023-04-26T04:32:40.306Z,51.10
2023-04-26T04:35:07.811Z,51.02
2023-04-26T04:37:35.223Z,50.88
2023-04-26T04:40:04.660Z,51.21
2023-04-26T04:42:34.870Z,50.79
2023-04-26T04:45:03.308Z,51.21
2023-04-26T04:47:30.272Z,51.01
2023-04-26T04:49:57.169Z,51.17
2023-04-26T04:52:24.025Z,51.08
2023-04-26T04:54:51.101Z,51.22
2023-04-26T04:57:18.808Z,51.07
2023-04-26T04:59:47.402Z,51.35
2023-04-26T05:02:14.393Z,51.12
2023-04-26T05:04:41.588Z,50.88
2023-04-26T05:07:09.397Z,51.10
2023-04-26T05:09:41.129Z,51.08
2023-04-26T05:12:08.171Z,50.75
2023-04-26T05:14:35.326Z,51.25
2023-04-26T05:17:02.188Z,51.00
2023-04-26T05:19:29.127Z,51.37
2023-04-26T05:21:57.807Z,51.06
2023-04-26T05:24:24.712Z,51.15
2023-04-26T05:26:51.862Z,51.52
2023-04-26T05:29:38.182Z,51.42
2023-04-26T05:32:24.761Z,51.59
2023-04-26T05:35:02.643Z,51.31
2023-04-26T05:37:30.698Z,51.41
2023-04-26T05:39:57.747Z,51.72
2023-04-26T05:42:24.539Z,51.64
2023-04-26T05:44:51.390Z,51.30
2023-04-26T05:47:18.290Z,51.70
2023-04-26T05:49:45.445Z,51.63
2023-04-26T05:52:12.282Z,51.28
2023-04-26T05:54:39.933Z,51.44
2023-04-26T05:57:06.932Z,51.44
2023-04-26T05:59:36.971Z,51.46
2023-04-26T06:02:05.050Z,51.35
2023-04-26T06:04:32.828Z,51.40
2023-04-26T06:07:10.407Z,51.38
2023-04-26T06:09:37.355Z,51.35
2023-04-26T06:12:04.669Z,50.93
2023-04-26T06:14:34.621Z,51.21
2023-04-26T06:17:05.971Z,51.00
2023-04-26T06:19:32.893Z,51.06
2023-04-26T06:21:59.725Z,51.11
2023-04-26T06:24:26.658Z,50.95
2023-04-26T06:26:53.811Z,50.95
2023-04-26T06:29:21.562Z,50.73
2023-04-26T06:31:48.634Z,50.46
2023-04-26T06:34:16.132Z,50.26
2023-04-26T06:36:43.004Z,50.36
2023-04-26T06:39:11.171Z,50.27
2023-04-26T06:41:39.014Z,50.38
2023-04-26T06:44:05.983Z,50.19
2023-04-26T06:46:32.900Z,49.93
2023-04-26T06:49:01.440Z,49.96
2023-04-26T06:51:29.630Z,49.80
2023-04-26T06:53:59.007Z,49.68
2023-04-26T06:56:26.035Z,49.35
2023-04-26T06:59:01.785Z,49.42
2023-04-26T07:01:29.554Z,49.24
2023-04-26T07:03:59.676Z,49.03
2023-04-26T07:06:27.004Z,49.04
2023-04-26T07:08:54.295Z,48.94
2023-04-26T07:11:23.403Z,48.54
2023-04-26T07:13:52.577Z,48.61
2023-04-26T07:16:20.026Z,48.38
2023-04-26T07:18:48.593Z,48.27
2023-04-26T07:21:15.842Z,48.14
2023-04-26T07:23:42.624Z,48.18
2023-04-26T07:26:11.502Z,48.03
2023-04-26T07:28:38.349Z,48.01
2023-04-26T07:31:07.789Z,47.59
2023-04-26T07:33:35.757Z,47.37
2023-04-26T07:36:02.890Z,47.09
2023-04-26T07:38:29.736Z,47.17
2023-04-26T07:40:56.634Z,46.98
2023-04-26T07:43:23.498Z,46.93
2023-04-26T07:45:50.337Z,46.73
2023-04-26T07:48:17.176Z,46.67
2023-04-26T07:50:44.166Z,46.27
2023-04-26T07:53:11.044Z,45.98
2023-04-26T07:55:37.953Z,45.94
2023-04-26T07:58:04.764Z,46.01
2023-04-26T08:00:31.638Z,45.81
2023-04-26T08:02:58.677Z,45.43
2023-04-26T08:05:25.955Z,45.32
2023-04-26T08:07:52.898Z,44.76
2023-04-26T08:10:19.811Z,44.74
2023-04-26T08:12:46.740Z,44.50
2023-04-26T08:15:13.663Z,44.30
2023-04-26T08:17:41.348Z,44.00
2023-04-26T08:20:09.618Z,43.96
2023-04-26T08:22:36.797Z,43.81
2023-04-26T08:25:04.668Z,43.14
2023-04-26T08:27:31.879Z,43.19
2023-04-26T08:29:58.701Z,43.14
2023-04-26T08:32:26.090Z,42.73
2023-04-26T08:34:52.982Z,42.49
2023-04-26T08:37:19.823Z,42.29
2023-04-26T08:39:46.927Z,42.37
2023-04-26T08:42:16.448Z,42.19
2023-04-26T08:44:45.592Z,42.17
2023-04-26T08:47:48.033Z,41.59
2023-04-26T08:50:18.583Z,41.92
2023-04-26T08:52:50.754Z,41.94
2023-04-26T08:55:22.484Z,41.87
2023-04-26T08:57:50.726Z,41.80
2023-04-26T09:00:19.622Z,41.80
2023-04-26T09:02:49.893Z,41.50
2023-04-26T09:05:17.368Z,41.40
2023-04-26T09:07:48.268Z,40.80
2023-04-26T09:10:22.205Z,40.82
2023-04-26T09:12:53.645Z,40.38
2023-04-26T09:15:26.432Z,40.25
2023-04-26T09:17:53.911Z,40.00
2023-04-26T09:20:28.974Z,39.95
2023-04-26T09:23:09.914Z,39.55
2023-04-26T09:25:37.482Z,39.90
2023-04-26T09:28:19.114Z,39.68
2023-04-26T09:30:46.203Z,39.85
2023-04-26T09:33:13.086Z,39.80
2023-04-26T09:35:44.308Z,39.42
2023-04-26T09:38:14.662Z,39.45
2023-04-26T09:40:49.980Z,39.04
2023-04-26T09:43:19.668Z,39.01
2023-04-26T09:45:53.546Z,39.49
2023-04-26T09:48:30.256Z,39.70
2023-04-26T09:50:59.628Z,39.85
2023-04-26T09:53:31.743Z,40.12
2023-04-26T09:56:18.916Z,39.89
2023-04-26T09:59:02.457Z,39.83
2023-04-26T10:01:32.661Z,39.88
2023-04-26T10:04:04.374Z,39.24
2023-04-26T10:06:32.843Z,39.07
2023-04-26T10:09:01.798Z,38.87
2023-04-26T10:11:30.450Z,38.62
2023-04-26T10:13:57.532Z,38.29
2023-04-26T10:16:24.659Z,37.92
2023-04-26T10:18:51.727Z,37.70
2023-04-26T10:21:32.544Z,37.43
2023-04-26T10:24:00.425Z,37.47
2023-04-26T10:26:52.712Z,37.19
2023-04-26T10:29:21.144Z,36.62
2023-04-26T10:32:06.203Z,36.57
2023-04-26T10:34:35.064Z,36.53
2023-04-26T10:37:16.745Z,36.06
2023-04-26T10:39:45.497Z,36.39
2023-04-26T10:42:30.742Z,36.52
2023-04-26T10:44:59.559Z,36.41
2023-04-26T10:47:36.923Z,36.58
2023-04-26T10:50:12.726Z,36.58
2023-04-26T10:53:03.507Z,36.82
2023-04-26T10:55:41.714Z,36.48
2023-04-26T10:58:35.309Z,36.70
2023-04-26T11:01:18.843Z,36.68
2023-04-26T11:03:58.737Z,36.55
2023-04-26T11:06:26.767Z,36.61
2023-04-26T11:08:54.467Z,36.56
2023-04-26T11:11:26.837Z,36.58
2023-04-26T11:13:53.652Z,36.33
2023-04-26T11:16:20.676Z,36.67
2023-04-26T11:18:48.207Z,36.57
2023-04-26T11:21:17.906Z,36.46
2023-04-26T11:23:54.585Z,36.26
2023-04-26T11:26:22.304Z,36.49
2023-04-26T11:28:49.581Z,36.15
2023-04-26T11:31:19.132Z,35.69
2023-04-26T11:33:47.792Z,36.16
2023-04-26T11:36:17.078Z,35.84
2023-04-26T11:38:44.167Z,35.42
2023-04-26T11:41:11.397Z,35.45
2023-04-26T11:43:39.816Z,34.96
2023-04-26T11:46:08.424Z,35.10
2023-04-26T11:48:37.524Z,34.60
2023-04-26T11:51:07.216Z,34.03
2023-04-26T11:53:40.289Z,33.75
2023-04-26T11:56:18.366Z,33.16
2023-04-26T11:58:50.857Z,33.02
2023-04-26T12:01:22.066Z,33.15
2023-04-26T12:03:55.743Z,32.70
2023-04-26T12:06:43.473Z,32.80
2023-04-26T12:09:11.608Z,32.64
2023-04-26T12:11:39.554Z,32.74
2023-04-26T12:14:08.027Z,33.02
2023-04-26T12:16:38.332Z,32.69
2023-04-26T12:19:09.014Z,32.46
2023-04-26T12:21:45.172Z,32.67
2023-04-26T12:24:26.774Z,32.26
2023-04-26T12:26:53.675Z,32.31
2023-04-26T12:29:20.514Z,32.66
2023-04-26T12:31:47.836Z,32.39
2023-04-26T12:34:14.659Z,32.65
2023-04-26T12:36:44.437Z,32.69
2023-04-26T12:39:14.322Z,32.69
2023-04-26T12:41:41.879Z,33.74
2023-04-26T12:44:09.909Z,33.12
2023-04-26T12:46:37.059Z,32.67
2023-04-26T12:49:04.599Z,32.71
2023-04-26T12:51:31.994Z,32.27
2023-04-26T12:53:58.951Z,32.46
2023-04-26T12:56:25.885Z,32.42
2023-04-26T12:58:52.692Z,32.20
2023-04-26T13:01:19.674Z,32.16
2023-04-26T13:03:46.845Z,31.81
2023-04-26T13:06:13.858Z,32.17
2023-04-26T13:08:42.289Z,32.21
2023-04-26T13:11:09.075Z,31.52
2023-04-26T13:13:43.139Z,31.66
2023-04-26T13:16:12.330Z,31.63
2023-04-26T13:18:40.369Z,32.14
2023-04-26T13:21:07.440Z,32.26
2023-04-26T13:23:34.239Z,31.89
2023-04-26T13:26:01.005Z,32.38
2023-04-26T13:28:27.824Z,31.56
2023-04-26T13:30:55.742Z,32.08
2023-04-26T13:33:22.657Z,31.45
2023-04-26T13:35:49.480Z,31.78
2023-04-26T13:38:16.784Z,31.68
2023-04-26T13:40:44.160Z,31.91
2023-04-26T13:43:11.154Z,32.16
2023-04-26T13:45:38.744Z,31.67
2023-04-26T13:48:05.729Z,31.48
2023-04-26T13:50:32.581Z,31.41
2023-04-26T13:53:00.147Z,31.74
2023-04-26T13:55:26.946Z,32.15
2023-04-26T13:57:53.795Z,31.85
2023-04-26T14:00:21.249Z,31.86
2023-04-26T14:02:49.419Z,31.67
2023-04-26T14:05:16.621Z,31.46
2023-04-26T14:07:43.753Z,31.88
2023-04-26T14:10:12.103Z,31.92
2023-04-26T14:12:39.636Z,31.68
2023-04-26T14:15:07.702Z,31.85
2023-04-26T14:17:34.581Z,31.61
2023-04-26T14:20:01.542Z,31.67
2023-04-26T14:22:28.372Z,31.53
2023-04-26T14:24:55.202Z,31.59
2023-04-26T14:27:22.000Z,31.67
2023-04-26T14:29:48.864Z,31.67
2023-04-26T14:32:15.856Z,31.49
2023-04-26T14:34:43.026Z,31.27
2023-04-26T14:37:10.319Z,31.30
2023-04-26T14:39:37.292Z,31.28
2023-04-26T14:42:04.775Z,31.40
2023-04-26T14:44:31.800Z,31.43
2023-04-26T14:46:58.645Z,31.01
2023-04-26T14:49:25.651Z,31.27
2023-04-26T14:51:53.729Z,31.27
2023-04-26T14:54:21.393Z,31.86
2023-04-26T14:56:48.679Z,31.53
2023-04-26T14:59:15.967Z,31.90
2023-04-26T15:01:43.031Z,31.73
2023-04-26T15:04:10.171Z,31.70
2023-04-26T15:06:37.130Z,31.47
2023-04-26T15:09:04.519Z,31.62
2023-04-26T15:11:31.364Z,31.64
2023-04-26T15:13:58.333Z,31.80
2023-04-26T15:16:25.265Z,32.17
2023-04-26T15:18:52.148Z,32.29
2023-04-26T15:21:19.420Z,32.17
2023-04-26T15:23:46.500Z,31.48
2023-04-26T15:26:14.253Z,31.55
2023-04-26T15:28:41.142Z,31.36
2023-04-26T15:31:09.834Z,31.31
2023-04-26T15:33:36.721Z,31.55
2023-04-26T15:36:03.937Z,31.20
2023-04-26T15:38:30.745Z,31.04
2023-04-26T15:40:57.631Z,31.30
2023-04-26T15:43:24.429Z,31.75
2023-04-26T15:45:51.474Z,31.92
2023-04-26T15:48:18.378Z,32.23
2023-04-26T15:50:46.119Z,31.27
2023-04-26T15:53:12.941Z,31.70
2023-04-26T15:55:39.708Z,32.21
2023-04-26T15:58:06.501Z,31.70
2023-04-26T16:00:33.944Z,31.61
2023-04-26T16:03:02.145Z,30.65
2023-04-26T16:05:29.261Z,30.57
2023-04-26T16:07:56.255Z,30.49
2023-04-26T16:10:23.760Z,29.96
2023-04-26T16:12:50.805Z,30.31
2023-04-26T16:15:18.042Z,30.42
2023-04-26T16:17:44.949Z,29.72
2023-04-26T16:20:12.100Z,28.98
2023-04-26T16:22:38.921Z,28.39
2023-04-26T16:25:06.862Z,27.98
2023-04-26T16:27:33.936Z,28.01
2023-04-26T16:30:00.998Z,27.32
2023-04-26T16:32:30.525Z,26.63
2023-04-26T16:34:57.420Z,26.10
2023-04-26T16:37:24.244Z,25.16
2023-04-26T16:39:55.709Z,24.87
2023-04-26T16:42:22.740Z,24.59
2023-04-26T16:44:49.558Z,23.80
2023-04-26T16:47:16.386Z,22.97
2023-04-26T16:49:43.223Z,22.98
2023-04-26T16:52:10.110Z,22.32
2023-04-26T16:54:36.957Z,22.43
2023-04-26T16:57:04.419Z,22.74
2023-04-26T16:59:31.346Z,22.47
2023-04-26T17:01:58.282Z,22.91
2023-04-26T17:04:26.419Z,22.82
2023-04-26T17:06:54.576Z,23.22
2023-04-26T17:09:21.504Z,23.55
2023-04-26T17:11:49.875Z,23.47
2023-04-26T17:14:16.758Z,23.68
2023-04-26T17:16:43.698Z,23.97
2023-04-26T17:19:10.755Z,23.92
2023-04-26T17:21:37.662Z,24.09
2023-04-26T17:24:04.697Z,24.48
2023-04-26T17:26:31.521Z,24.91
2023-04-26T17:28:58.297Z,24.97
2023-04-26T17:31:25.420Z,25.64
2023-04-26T17:33:52.270Z,25.95
2023-04-26T17:36:19.399Z,26.10
2023-04-26T17:38:46.243Z,26.14
2023-04-26T17:41:13.522Z,26.71
2023-04-26T17:43:40.541Z,26.64
2023-04-26T17:46:07.509Z,27.22
2023-04-26T17:48:34.419Z,27.59
2023-04-26T17:51:01.265Z,28.09
2023-04-26T17:53:28.105Z,28.43
2023-04-26T17:55:55.188Z,28.45
2023-04-26T17:58:21.969Z,29.05
2023-04-26T18:00:49.434Z,29.27
2023-04-26T18:03:16.406Z,29.29
2023-04-26T18:05:43.779Z,29.70
2023-04-26T18:08:10.651Z,29.65
2023-04-26T18:10:37.517Z,29.80
2023-04-26T18:13:04.319Z,30.44
2023-04-26T18:15:31.294Z,30.63
2023-04-26T18:17:58.142Z,30.64
2023-04-26T18:20:24.943Z,30.93
2023-04-26T18:22:51.748Z,31.48
2023-04-26T18:25:18.931Z,31.67
2023-04-26T18:27:46.913Z,32.04
2023-04-26T18:30:13.873Z,31.80
2023-04-26T18:32:41.200Z,32.26
2023-04-26T18:35:08.528Z,32.40
2023-04-26T18:37:36.128Z,32.23
2023-04-26T18:40:04.945Z,32.33
2023-04-26T18:42:31.787Z,32.45
2023-04-26T18:44:59.599Z,32.84
2023-04-26T18:47:26.629Z,33.19
2023-04-26T18:49:53.506Z,33.46
2023-04-26T18:52:22.577Z,33.44
2023-04-26T18:54:49.356Z,33.32
2023-04-26T18:57:21.817Z,33.59
2023-04-26T18:59:49.280Z,33.38
2023-04-26T19:02:16.112Z,33.85
2023-04-26T19:04:43.186Z,34.29
2023-04-26T19:07:10.097Z,34.29
2023-04-26T19:09:50.379Z,34.52
2023-04-26T19:12:20.431Z,34.60
2023-04-26T19:14:47.268Z,34.69
2023-04-26T19:17:14.308Z,34.76
2023-04-26T19:19:41.735Z,35.15
2023-04-26T19:22:08.571Z,35.34
2023-04-26T19:24:35.686Z,35.35
2023-04-26T19:27:02.769Z,35.50
2023-04-26T19:29:30.952Z,35.57
2023-04-26T19:31:59.912Z,35.72
2023-04-26T19:34:26.833Z,35.73
2023-04-26T19:36:53.670Z,35.93
2023-04-26T19:39:22.641Z,36.00
2023-04-26T19:41:51.834Z,35.93
2023-04-26T19:44:20.265Z,36.11
2023-04-26T19:46:47.172Z,36.29
2023-04-26T19:49:14.007Z,36.56
2023-04-26T19:51:41.139Z,36.52
2023-04-26T19:54:07.913Z,36.43
2023-04-26T19:56:34.725Z,36.43
2023-04-26T19:59:01.546Z,36.63
2023-04-26T20:01:28.593Z,36.70
2023-04-26T20:03:55.711Z,36.83
2023-04-26T20:06:22.730Z,36.78
2023-04-26T20:08:49.508Z,37.10
2023-04-26T20:11:17.361Z,36.86
2023-04-26T20:13:45.280Z,36.73
2023-04-26T20:16:12.645Z,37.03
2023-04-26T20:18:39.653Z,36.90
2023-04-26T20:21:06.517Z,37.21
2023-04-26T20:23:33.469Z,37.27
2023-04-26T20:26:00.555Z,37.41
2023-04-26T20:28:27.371Z,37.54
2023-04-26T20:30:54.208Z,37.59
2023-04-26T20:33:21.265Z,37.81
2023-04-26T20:35:48.055Z,37.70
2023-04-26T20:38:14.852Z,37.72
2023-04-26T20:40:41.747Z,38.24
2023-04-26T20:43:08.615Z,38.23
2023-04-26T20:45:35.549Z,38.71
2023-04-26T20:48:02.415Z,39.10
2023-04-26T20:50:29.284Z,39.17
2023-04-26T20:52:56.216Z,39.13
2023-04-26T20:55:23.141Z,39.22
2023-04-26T20:57:49.995Z,39.46
2023-04-26T21:00:17.204Z,39.13
2023-04-26T21:02:44.152Z,39.73
2023-04-26T21:05:11.091Z,39.65
2023-04-26T21:07:37.924Z,39.87
2023-04-26T21:10:05.239Z,39.82
2023-04-26T21:12:32.107Z,39.92
2023-04-26T21:14:59.028Z,39.83
2023-04-26T21:17:25.889Z,40.00
2023-04-26T21:19:52.692Z,40.08
2023-04-26T21:22:19.505Z,40.13
2023-04-26T21:24:46.308Z,40.01
2023-04-26T21:27:13.146Z,40.39
2023-04-26T21:29:39.917Z,40.26
2023-04-26T21:32:06.704Z,40.40
2023-04-26T21:34:33.458Z,40.65
2023-04-26T21:37:00.328Z,40.64
2023-04-26T21:39:27.133Z,40.88
2023-04-26T21:41:53.910Z,40.80
2023-04-26T21:44:20.806Z,40.80
2023-04-26T21:46:47.689Z,40.68
2023-04-26T21:49:14.500Z,41.00
2023-04-26T21:51:41.318Z,41.08
2023-04-26T21:54:08.143Z,41.08
2023-04-26T21:56:34.915Z,41.09
2023-04-26T21:59:02.510Z,41.13
2023-04-26T22:01:29.498Z,41.13
2023-04-26T22:03:56.490Z,41.12
2023-04-26T22:06:23.466Z,41.13
2023-04-26T22:08:50.461Z,40.99
2023-04-26T22:11:17.258Z,41.04
2023-04-26T22:13:44.099Z,41.00
2023-04-26T22:16:11.006Z,41.38
2023-04-26T22:18:37.826Z,41.26
2023-04-26T22:21:04.599Z,41.29
2023-04-26T22:23:31.476Z,41.24
2023-04-26T22:26:00.469Z,41.44
2023-04-26T22:28:27.280Z,41.66
2023-04-26T22:30:54.116Z,41.50
2023-04-26T22:33:21.435Z,41.63
2023-04-26T22:35:48.314Z,41.74
2023-04-26T22:38:15.149Z,42.11
2023-04-26T22:40:42.402Z,41.83
2023-04-26T22:43:09.220Z,42.19
2023-04-26T22:45:37.040Z,41.96
2023-04-26T22:48:04.180Z,42.00
2023-04-26T22:50:31.238Z,42.07
2023-04-26T22:52:58.054Z,42.22
2023-04-26T22:55:25.003Z,42.37
2023-04-26T22:57:51.897Z,42.31
2023-04-26T23:00:19.850Z,42.59
2023-04-26T23:02:46.821Z,42.47
2023-04-26T23:05:13.714Z,42.25
2023-04-26T23:07:40.609Z,42.67
2023-04-26T23:10:08.245Z,42.78
2023-04-26T23:12:38.579Z,42.74
2023-04-26T23:15:06.235Z,43.03
2023-04-26T23:17:34.406Z,43.13
2023-04-26T23:20:01.253Z,43.15
2023-04-26T23:22:28.152Z,43.15
2023-04-26T23:24:55.042Z,43.15
2023-04-26T23:27:21.876Z,43.21
2023-04-26T23:29:50.620Z,43.32
2023-04-26T23:32:17.421Z,43.21
2023-04-26T23:34:44.374Z,43.41
2023-04-26T23:37:11.250Z,43.69
2023-04-26T23:39:38.056Z,43.58
2023-04-26T23:42:04.943Z,43.44
2023-04-26T23:44:31.739Z,43.61
2023-04-26T23:46:58.517Z,43.48
2023-04-26T23:49:25.682Z,43.61
2023-04-26T23:51:52.517Z,43.47
2023-04-26T23:54:19.413Z,43.64
2023-04-26T23:56:46.457Z,43.54
2023-04-26T23:59:14.234Z,43.67
